sensor_id;sensor_type;location;lat;lon;timestamp;temperature;humidity
39847;DHT22;25517;52.422;10.782;2023-03-23T00:01:16;13.00;99.90
39847;DHT22;25517;52.422;10.782;2023-03-23T00:03:46;13.00;99.90
39847;DHT22;25517;52.422;10.782;2023-03-23T00:06:13;13.00;99.90
39847;DHT22;25517;52.422;10.782;2023-03-23T00:08:47;13.10;99.90
39847;DHT22;25517;52.422;10.782;2023-03-23T00:11:15;13.10;99.90
39847;DHT22;25517;52.422;10.782;2023-03-23T00:13:42;13.10;99.90
39847;DHT22;25517;52.422;10.782;2023-03-23T00:16:08;13.10;99.90
39847;DHT22;25517;52.422;10.782;2023-03-23T00:18:47;13.20;99.90
39847;DHT22;25517;52.422;10.782;2023-03-23T00:21:13;13.20;99.90
39847;DHT22;25517;52.422;10.782;2023-03-23T00:23:39;13.20;99.90
39847;DHT22;25517;52.422;10.782;2023-03-23T00:26:04;13.20;99.90
39847;DHT22;25517;52.422;10.782;2023-03-23T00:28:30;13.10;99.90
39847;DHT22;25517;52.422;10.782;2023-03-23T00:31:04;13.20;99.90
39847;DHT22;25517;52.422;10.782;2023-03-23T00:33:35;13.20;99.90
39847;DHT22;25517;52.422;10.782;2023-03-23T00:36:04;13.10;99.90
39847;DHT22;25517;52.422;10.782;2023-03-23T00:38:30;13.10;99.90
39847;DHT22;25517;52.422;10.782;2023-03-23T00:40:56;13.10;99.90
39847;DHT22;25517;52.422;10.782;2023-03-23T00:43:23;13.10;99.90
39847;DHT22;25517;52.422;10.782;2023-03-23T00:45:50;13.10;99.90
39847;DHT22;25517;52.422;10.782;2023-03-23T00:48:19;13.10;99.90
39847;DHT22;25517;52.422;10.782;2023-03-23T00:50:45;13.20;99.90
39847;DHT22;25517;52.422;10.782;2023-03-23T00:53:11;13.20;99.90
39847;DHT22;25517;52.422;10.782;2023-03-23T00:55:36;13.20;99.90
39847;DHT22;25517;52.422;10.782;2023-03-23T00:58:02;13.10;99.90
39847;DHT22;25517;52.422;10.782;2023-03-23T01:00:27;13.10;99.90
39847;DHT22;25517;52.422;10.782;2023-03-23T01:02:54;13.10;99.90
39847;DHT22;25517;52.422;10.782;2023-03-23T01:05:20;13.10;99.90
39847;DHT22;25517;52.422;10.782;2023-03-23T01:07:46;13.10;99.90
39847;DHT22;25517;52.422;10.782;2023-03-23T01:10:12;13.00;99.90
39847;DHT22;25517;52.422;10.782;2023-03-23T01:12:42;13.00;99.90
39847;DHT22;25517;52.422;10.782;2023-03-23T01:15:08;12.90;99.90
39847;DHT22;25517;52.422;10.782;2023-03-23T01:17:33;12.80;99.90
39847;DHT22;25517;52.422;10.782;2023-03-23T01:19:59;12.70;99.90
39847;DHT22;25517;52.422;10.782;2023-03-23T01:22:25;12.60;99.90
39847;DHT22;25517;52.422;10.782;2023-03-23T01:24:50;12.60;99.90
39847;DHT22;25517;52.422;10.782;2023-03-23T01:27:16;12.50;99.90
39847;DHT22;25517;52.422;10.782;2023-03-23T01:29:41;12.40;99.90
39847;DHT22;25517;52.422;10.782;2023-03-23T01:32:07;12.30;99.90
39847;DHT22;25517;52.422;10.782;2023-03-23T01:34:32;12.30;99.90
39847;DHT22;25517;52.422;10.782;2023-03-23T01:36:58;12.20;99.90
39847;DHT22;25517;52.422;10.782;2023-03-23T01:39:24;12.00;99.90
39847;DHT22;25517;52.422;10.782;2023-03-23T01:41:49;12.00;99.90
39847;DHT22;25517;52.422;10.782;2023-03-23T01:46:40;11.70;99.90
39847;DHT22;25517;52.422;10.782;2023-03-23T01:49:10;11.70;99.90
39847;DHT22;25517;52.422;10.782;2023-03-23T01:51:42;11.60;99.90
39847;DHT22;25517;52.422;10.782;2023-03-23T01:54:11;11.50;99.90
39847;DHT22;25517;52.422;10.782;2023-03-23T01:56:39;11.50;99.90
39847;DHT22;25517;52.422;10.782;2023-03-23T01:59:10;11.50;99.90
39847;DHT22;25517;52.422;10.782;2023-03-23T02:01:36;11.40;99.90
39847;DHT22;25517;52.422;10.782;2023-03-23T02:04:08;11.40;99.90
39847;DHT22;25517;52.422;10.782;2023-03-23T02:06:34;11.40;99.90
39847;DHT22;25517;52.422;10.782;2023-03-23T02:09:00;11.40;99.90
39847;DHT22;25517;52.422;10.782;2023-03-23T02:11:26;11.40;99.90
39847;DHT22;25517;52.422;10.782;2023-03-23T02:13:52;11.40;99.90
39847;DHT22;25517;52.422;10.782;2023-03-23T02:16:30;11.40;99.90
39847;DHT22;25517;52.422;10.782;2023-03-23T02:27:55;11.30;99.90
39847;DHT22;25517;52.422;10.782;2023-03-23T02:30:31;11.20;99.90
39847;DHT22;25517;52.422;10.782;2023-03-23T02:41:32;11.20;99.90
39847;DHT22;25517;52.422;10.782;2023-03-23T02:44:00;11.20;99.90
39847;DHT22;25517;52.422;10.782;2023-03-23T02:46:27;11.20;99.90
39847;DHT22;25517;52.422;10.782;2023-03-23T02:48:54;11.30;99.90
39847;DHT22;25517;52.422;10.782;2023-03-23T02:51:22;11.30;99.90
39847;DHT22;25517;52.422;10.782;2023-03-23T02:53:51;11.30;99.90
39847;DHT22;25517;52.422;10.782;2023-03-23T02:56:18;11.30;99.90
39847;DHT22;25517;52.422;10.782;2023-03-23T02:58:44;11.30;99.90
39847;DHT22;25517;52.422;10.782;2023-03-23T03:04:03;11.30;99.90
39847;DHT22;25517;52.422;10.782;2023-03-23T03:06:37;11.30;99.90
39847;DHT22;25517;52.422;10.782;2023-03-23T03:09:14;11.40;99.90
39847;DHT22;25517;52.422;10.782;2023-03-23T03:11:49;11.40;99.90
39847;DHT22;25517;52.422;10.782;2023-03-23T03:14:44;11.50;99.90
39847;DHT22;25517;52.422;10.782;2023-03-23T03:17:21;11.50;99.90
39847;DHT22;25517;52.422;10.782;2023-03-23T03:19:49;11.60;99.90
39847;DHT22;25517;52.422;10.782;2023-03-23T03:22:17;11.60;99.90
39847;DHT22;25517;52.422;10.782;2023-03-23T03:24:46;11.60;99.90
39847;DHT22;25517;52.422;10.782;2023-03-23T03:27:18;11.60;99.90
39847;DHT22;25517;52.422;10.782;2023-03-23T03:29:48;11.60;99.90
39847;DHT22;25517;52.422;10.782;2023-03-23T03:32:19;11.60;99.90
39847;DHT22;25517;52.422;10.782;2023-03-23T03:34:46;11.60;99.90
39847;DHT22;25517;52.422;10.782;2023-03-23T03:37:12;11.80;99.90
39847;DHT22;25517;52.422;10.782;2023-03-23T03:39:39;11.80;99.90
39847;DHT22;25517;52.422;10.782;2023-03-23T03:42:07;11.80;99.90
39847;DHT22;25517;52.422;10.782;2023-03-23T03:44:34;11.80;99.90
39847;DHT22;25517;52.422;10.782;2023-03-23T03:47:00;11.80;99.90
39847;DHT22;25517;52.422;10.782;2023-03-23T03:49:26;11.80;99.90
39847;DHT22;25517;52.422;10.782;2023-03-23T03:51:52;11.70;99.90
39847;DHT22;25517;52.422;10.782;2023-03-23T03:54:18;11.70;99.90
39847;DHT22;25517;52.422;10.782;2023-03-23T03:56:43;11.70;99.90
39847;DHT22;25517;52.422;10.782;2023-03-23T03:59:11;11.70;99.90
39847;DHT22;25517;52.422;10.782;2023-03-23T04:01:38;11.70;99.90
39847;DHT22;25517;52.422;10.782;2023-03-23T04:04:04;11.70;99.90
39847;DHT22;25517;52.422;10.782;2023-03-23T04:06:32;11.70;99.90
39847;DHT22;25517;52.422;10.782;2023-03-23T04:08:58;11.70;99.90
39847;DHT22;25517;52.422;10.782;2023-03-23T04:11:25;11.70;99.90
39847;DHT22;25517;52.422;10.782;2023-03-23T04:13:51;11.70;99.90
39847;DHT22;25517;52.422;10.782;2023-03-23T04:16:17;11.60;99.90
39847;DHT22;25517;52.422;10.782;2023-03-23T04:18:43;11.60;99.90
39847;DHT22;25517;52.422;10.782;2023-03-23T04:21:09;11.60;99.90
39847;DHT22;25517;52.422;10.782;2023-03-23T04:23:35;11.60;99.90
39847;DHT22;25517;52.422;10.782;2023-03-23T04:26:01;11.60;99.90
39847;DHT22;25517;52.422;10.782;2023-03-23T04:28:28;11.60;99.90
39847;DHT22;25517;52.422;10.782;2023-03-23T04:30:55;11.60;99.90
39847;DHT22;25517;52.422;10.782;2023-03-23T04:33:25;11.50;99.90
39847;DHT22;25517;52.422;10.782;2023-03-23T04:35:53;11.40;99.90
39847;DHT22;25517;52.422;10.782;2023-03-23T04:38:20;11.40;99.90
39847;DHT22;25517;52.422;10.782;2023-03-23T04:40:47;11.40;99.90
39847;DHT22;25517;52.422;10.782;2023-03-23T04:43:17;11.30;99.90
39847;DHT22;25517;52.422;10.782;2023-03-23T04:45:47;11.20;99.90
39847;DHT22;25517;52.422;10.782;2023-03-23T04:48:17;11.30;99.90
39847;DHT22;25517;52.422;10.782;2023-03-23T04:50:43;11.20;99.90
39847;DHT22;25517;52.422;10.782;2023-03-23T04:53:08;11.20;99.90
39847;DHT22;25517;52.422;10.782;2023-03-23T04:55:36;11.10;99.90
39847;DHT22;25517;52.422;10.782;2023-03-23T04:58:06;11.10;99.90
39847;DHT22;25517;52.422;10.782;2023-03-23T05:00:32;11.10;99.90
39847;DHT22;25517;52.422;10.782;2023-03-23T05:02:58;11.10;99.90
39847;DHT22;25517;52.422;10.782;2023-03-23T05:05:24;11.10;99.90
39847;DHT22;25517;52.422;10.782;2023-03-23T05:07:51;11.00;99.90
39847;DHT22;25517;52.422;10.782;2023-03-23T05:10:17;11.00;99.90
39847;DHT22;25517;52.422;10.782;2023-03-23T05:12:43;11.00;99.90
39847;DHT22;25517;52.422;10.782;2023-03-23T05:15:11;11.00;99.90
39847;DHT22;25517;52.422;10.782;2023-03-23T05:17:37;11.00;99.90
39847;DHT22;25517;52.422;10.782;2023-03-23T05:20:04;10.90;99.90
39847;DHT22;25517;52.422;10.782;2023-03-23T05:22:32;10.90;99.90
39847;DHT22;25517;52.422;10.782;2023-03-23T05:24:59;10.90;99.90
39847;DHT22;25517;52.422;10.782;2023-03-23T05:27:24;10.90;99.90
39847;DHT22;25517;52.422;10.782;2023-03-23T05:29:53;10.90;99.90
39847;DHT22;25517;52.422;10.782;2023-03-23T05:32:18;10.90;99.90
39847;DHT22;25517;52.422;10.782;2023-03-23T05:34:44;10.90;99.90
39847;DHT22;25517;52.422;10.782;2023-03-23T05:37:11;10.90;99.90
39847;DHT22;25517;52.422;10.782;2023-03-23T05:39:37;10.90;99.90
39847;DHT22;25517;52.422;10.782;2023-03-23T05:42:03;11.00;99.90
39847;DHT22;25517;52.422;10.782;2023-03-23T05:44:29;11.00;99.90
39847;DHT22;25517;52.422;10.782;2023-03-23T05:46:55;11.00;99.90
39847;DHT22;25517;52.422;10.782;2023-03-23T05:49:21;11.00;99.90
39847;DHT22;25517;52.422;10.782;2023-03-23T05:51:47;11.00;99.90
39847;DHT22;25517;52.422;10.782;2023-03-23T05:54:13;11.00;99.90
39847;DHT22;25517;52.422;10.782;2023-03-23T05:56:40;11.00;99.90
39847;DHT22;25517;52.422;10.782;2023-03-23T05:59:07;11.10;99.90
39847;DHT22;25517;52.422;10.782;2023-03-23T06:01:33;11.10;99.90
39847;DHT22;25517;52.422;10.782;2023-03-23T06:03:59;11.10;99.90
39847;DHT22;25517;52.422;10.782;2023-03-23T06:06:26;11.20;99.90
39847;DHT22;25517;52.422;10.782;2023-03-23T06:08:51;11.20;99.90
39847;DHT22;25517;52.422;10.782;2023-03-23T06:11:17;11.20;99.90
39847;DHT22;25517;52.422;10.782;2023-03-23T06:13:44;11.20;99.90
39847;DHT22;25517;52.422;10.782;2023-03-23T06:16:10;11.30;99.90
39847;DHT22;25517;52.422;10.782;2023-03-23T06:18:36;11.30;99.90
39847;DHT22;25517;52.422;10.782;2023-03-23T06:21:03;11.30;99.90
39847;DHT22;25517;52.422;10.782;2023-03-23T06:23:29;11.30;99.90
39847;DHT22;25517;52.422;10.782;2023-03-23T06:25:58;11.40;99.90
39847;DHT22;25517;52.422;10.782;2023-03-23T06:28:25;11.30;99.90
39847;DHT22;25517;52.422;10.782;2023-03-23T06:30:50;11.40;99.90
39847;DHT22;25517;52.422;10.782;2023-03-23T06:33:17;11.40;99.90
39847;DHT22;25517;52.422;10.782;2023-03-23T06:35:43;11.50;99.90
39847;DHT22;25517;52.422;10.782;2023-03-23T06:38:09;11.40;99.90
39847;DHT22;25517;52.422;10.782;2023-03-23T06:40:34;11.50;99.90
39847;DHT22;25517;52.422;10.782;2023-03-23T06:43:03;11.50;99.90
39847;DHT22;25517;52.422;10.782;2023-03-23T06:45:29;11.50;99.90
39847;DHT22;25517;52.422;10.782;2023-03-23T06:47:55;11.60;99.90
39847;DHT22;25517;52.422;10.782;2023-03-23T06:50:21;11.70;99.90
39847;DHT22;25517;52.422;10.782;2023-03-23T06:52:48;11.60;99.90
39847;DHT22;25517;52.422;10.782;2023-03-23T06:55:14;11.70;99.90
39847;DHT22;25517;52.422;10.782;2023-03-23T06:57:41;11.80;99.90
39847;DHT22;25517;52.422;10.782;2023-03-23T07:00:08;11.80;99.90
39847;DHT22;25517;52.422;10.782;2023-03-23T07:02:36;11.80;99.90
39847;DHT22;25517;52.422;10.782;2023-03-23T07:05:02;11.90;99.90
39847;DHT22;25517;52.422;10.782;2023-03-23T07:07:29;11.80;99.90
39847;DHT22;25517;52.422;10.782;2023-03-23T07:09:54;11.90;99.90
39847;DHT22;25517;52.422;10.782;2023-03-23T07:12:20;11.90;99.90
39847;DHT22;25517;52.422;10.782;2023-03-23T07:14:47;12.00;99.90
39847;DHT22;25517;52.422;10.782;2023-03-23T07:17:12;12.20;99.90
39847;DHT22;25517;52.422;10.782;2023-03-23T07:19:38;12.20;99.90
39847;DHT22;25517;52.422;10.782;2023-03-23T07:22:05;12.30;99.90
39847;DHT22;25517;52.422;10.782;2023-03-23T07:24:31;12.30;99.90
39847;DHT22;25517;52.422;10.782;2023-03-23T07:26:57;12.50;99.90
39847;DHT22;25517;52.422;10.782;2023-03-23T07:29:22;12.60;99.90
39847;DHT22;25517;52.422;10.782;2023-03-23T07:31:48;12.80;99.90
39847;DHT22;25517;52.422;10.782;2023-03-23T07:34:13;12.80;99.90
39847;DHT22;25517;52.422;10.782;2023-03-23T07:36:40;12.90;99.90
39847;DHT22;25517;52.422;10.782;2023-03-23T07:39:06;13.00;99.90
39847;DHT22;25517;52.422;10.782;2023-03-23T07:41:32;13.00;99.90
39847;DHT22;25517;52.422;10.782;2023-03-23T07:43:58;13.00;99.90
39847;DHT22;25517;52.422;10.782;2023-03-23T07:46:23;12.90;99.90
39847;DHT22;25517;52.422;10.782;2023-03-23T07:48:49;12.90;99.90
39847;DHT22;25517;52.422;10.782;2023-03-23T07:51:15;13.10;99.90
39847;DHT22;25517;52.422;10.782;2023-03-23T07:53:44;13.10;99.90
39847;DHT22;25517;52.422;10.782;2023-03-23T07:56:13;13.00;99.90
39847;DHT22;25517;52.422;10.782;2023-03-23T07:58:41;13.20;99.90
39847;DHT22;25517;52.422;10.782;2023-03-23T08:01:06;13.20;99.90
39847;DHT22;25517;52.422;10.782;2023-03-23T08:03:32;13.30;99.90
39847;DHT22;25517;52.422;10.782;2023-03-23T08:05:58;13.40;99.90
39847;DHT22;25517;52.422;10.782;2023-03-23T08:08:25;13.50;99.90
39847;DHT22;25517;52.422;10.782;2023-03-23T08:10:50;13.70;99.90
39847;DHT22;25517;52.422;10.782;2023-03-23T08:13:16;13.70;99.90
39847;DHT22;25517;52.422;10.782;2023-03-23T08:15:42;13.80;99.90
39847;DHT22;25517;52.422;10.782;2023-03-23T08:18:08;13.90;99.90
39847;DHT22;25517;52.422;10.782;2023-03-23T08:20:34;13.80;99.90
39847;DHT22;25517;52.422;10.782;2023-03-23T08:23:00;14.00;99.90
39847;DHT22;25517;52.422;10.782;2023-03-23T08:25:28;14.00;99.90
39847;DHT22;25517;52.422;10.782;2023-03-23T08:27:56;14.30;99.90
39847;DHT22;25517;52.422;10.782;2023-03-23T08:30:23;14.40;99.90
39847;DHT22;25517;52.422;10.782;2023-03-23T08:32:50;14.50;99.90
39847;DHT22;25517;52.422;10.782;2023-03-23T08:35:16;14.40;99.90
39847;DHT22;25517;52.422;10.782;2023-03-23T08:37:43;14.50;99.90
39847;DHT22;25517;52.422;10.782;2023-03-23T08:40:10;14.50;99.90
39847;DHT22;25517;52.422;10.782;2023-03-23T08:42:37;14.60;99.90
39847;DHT22;25517;52.422;10.782;2023-03-23T08:45:05;14.80;99.90
39847;DHT22;25517;52.422;10.782;2023-03-23T08:47:31;14.60;99.90
39847;DHT22;25517;52.422;10.782;2023-03-23T08:49:56;14.60;99.90
39847;DHT22;25517;52.422;10.782;2023-03-23T08:52:22;15.00;99.90
39847;DHT22;25517;52.422;10.782;2023-03-23T08:54:47;14.90;99.90
39847;DHT22;25517;52.422;10.782;2023-03-23T08:57:13;14.90;99.90
39847;DHT22;25517;52.422;10.782;2023-03-23T08:59:43;14.80;99.90
39847;DHT22;25517;52.422;10.782;2023-03-23T09:02:12;14.50;99.90
39847;DHT22;25517;52.422;10.782;2023-03-23T09:04:39;14.60;99.90
39847;DHT22;25517;52.422;10.782;2023-03-23T09:07:10;14.70;99.90
39847;DHT22;25517;52.422;10.782;2023-03-23T09:09:38;14.50;99.90
39847;DHT22;25517;52.422;10.782;2023-03-23T09:12:08;14.60;99.90
39847;DHT22;25517;52.422;10.782;2023-03-23T09:14:35;14.50;99.90
39847;DHT22;25517;52.422;10.782;2023-03-23T09:17:02;14.60;99.90
39847;DHT22;25517;52.422;10.782;2023-03-23T09:19:29;14.60;99.90
39847;DHT22;25517;52.422;10.782;2023-03-23T09:21:54;14.70;99.90
39847;DHT22;25517;52.422;10.782;2023-03-23T09:24:20;15.00;99.90
39847;DHT22;25517;52.422;10.782;2023-03-23T09:26:46;14.90;99.90
39847;DHT22;25517;52.422;10.782;2023-03-23T09:29:12;15.00;99.90
39847;DHT22;25517;52.422;10.782;2023-03-23T09:31:38;15.10;99.90
39847;DHT22;25517;52.422;10.782;2023-03-23T09:34:06;15.20;99.90
39847;DHT22;25517;52.422;10.782;2023-03-23T09:36:32;15.20;99.90
39847;DHT22;25517;52.422;10.782;2023-03-23T09:38:58;15.10;99.90
39847;DHT22;25517;52.422;10.782;2023-03-23T09:49:42;15.40;99.90
39847;DHT22;25517;52.422;10.782;2023-03-23T09:52:14;15.20;99.90
39847;DHT22;25517;52.422;10.782;2023-03-23T09:54:43;15.30;99.90
39847;DHT22;25517;52.422;10.782;2023-03-23T09:59:56;15.00;99.90
39847;DHT22;25517;52.422;10.782;2023-03-23T10:02:30;15.20;99.90
39847;DHT22;25517;52.422;10.782;2023-03-23T10:07:38;15.30;99.90
39847;DHT22;25517;52.422;10.782;2023-03-23T10:10:05;15.30;99.90
39847;DHT22;25517;52.422;10.782;2023-03-23T10:12:38;15.20;99.90
39847;DHT22;25517;52.422;10.782;2023-03-23T10:15:19;15.10;99.90
39847;DHT22;25517;52.422;10.782;2023-03-23T10:17:54;15.00;99.90
39847;DHT22;25517;52.422;10.782;2023-03-23T10:20:58;14.90;99.90
39847;DHT22;25517;52.422;10.782;2023-03-23T10:23:57;15.00;99.90
39847;DHT22;25517;52.422;10.782;2023-03-23T10:26:45;14.80;99.90
39847;DHT22;25517;52.422;10.782;2023-03-23T10:29:21;14.90;99.90
39847;DHT22;25517;52.422;10.782;2023-03-23T10:31:57;14.90;99.90
39847;DHT22;25517;52.422;10.782;2023-03-23T10:37:01;14.80;99.90
39847;DHT22;25517;52.422;10.782;2023-03-23T10:39:36;14.80;99.90
39847;DHT22;25517;52.422;10.782;2023-03-23T10:42:03;14.80;99.90
39847;DHT22;25517;52.422;10.782;2023-03-23T10:44:32;14.70;99.90
39847;DHT22;25517;52.422;10.782;2023-03-23T10:47:01;14.80;99.90
39847;DHT22;25517;52.422;10.782;2023-03-23T10:49:41;14.80;99.90
39847;DHT22;25517;52.422;10.782;2023-03-23T10:57:32;15.10;99.90
39847;DHT22;25517;52.422;10.782;2023-03-23T11:00:06;15.20;99.90
39847;DHT22;25517;52.422;10.782;2023-03-23T11:02:41;15.00;99.90
39847;DHT22;25517;52.422;10.782;2023-03-23T11:05:19;14.90;99.90
39847;DHT22;25517;52.422;10.782;2023-03-23T11:07:54;14.70;99.90
39847;DHT22;25517;52.422;10.782;2023-03-23T11:12:52;14.80;99.90
39847;DHT22;25517;52.422;10.782;2023-03-23T11:15:38;14.90;99.90
39847;DHT22;25517;52.422;10.782;2023-03-23T11:18:08;14.90;99.90
39847;DHT22;25517;52.422;10.782;2023-03-23T11:20:41;15.00;99.90
39847;DHT22;25517;52.422;10.782;2023-03-23T11:23:27;15.00;99.90
39847;DHT22;25517;52.422;10.782;2023-03-23T11:25:58;15.00;99.90
39847;DHT22;25517;52.422;10.782;2023-03-23T11:28:31;15.80;99.90
39847;DHT22;25517;52.422;10.782;2023-03-23T11:31:00;16.90;99.90
39847;DHT22;25517;52.422;10.782;2023-03-23T11:33:51;17.60;99.90
39847;DHT22;25517;52.422;10.782;2023-03-23T11:36:18;17.70;99.30
39847;DHT22;25517;52.422;10.782;2023-03-23T11:38:44;17.30;99.90
39847;DHT22;25517;52.422;10.782;2023-03-23T11:41:18;17.50;99.60
39847;DHT22;25517;52.422;10.782;2023-03-23T11:43:46;18.10;98.90
39847;DHT22;25517;52.422;10.782;2023-03-23T11:46:22;19.10;95.90
39847;DHT22;25517;52.422;10.782;2023-03-23T11:49:01;20.00;93.60
39847;DHT22;25517;52.422;10.782;2023-03-23T11:54:29;21.80;87.60
39847;DHT22;25517;52.422;10.782;2023-03-23T11:56:56;22.20;84.40
39847;DHT22;25517;52.422;10.782;2023-03-23T11:59:32;20.80;84.00
39847;DHT22;25517;52.422;10.782;2023-03-23T12:08:03;21.60;81.80
39847;DHT22;25517;52.422;10.782;2023-03-23T12:11:06;20.50;80.60
39847;DHT22;25517;52.422;10.782;2023-03-23T12:35:06;20.00;88.80
39847;DHT22;25517;52.422;10.782;2023-03-23T12:38:19;20.50;85.50
39847;DHT22;25517;52.422;10.782;2023-03-23T12:41:01;21.30;80.40
39847;DHT22;25517;52.422;10.782;2023-03-23T12:43:58;21.00;80.80
39847;DHT22;25517;52.422;10.782;2023-03-23T12:46:37;21.00;80.60
39847;DHT22;25517;52.422;10.782;2023-03-23T12:49:18;20.90;79.60
39847;DHT22;25517;52.422;10.782;2023-03-23T12:52:04;20.00;81.30
39847;DHT22;25517;52.422;10.782;2023-03-23T12:54:42;19.50;82.00
39847;DHT22;25517;52.422;10.782;2023-03-23T12:57:18;19.20;83.30
39847;DHT22;25517;52.422;10.782;2023-03-23T13:00:13;19.40;85.70
39847;DHT22;25517;52.422;10.782;2023-03-23T13:03:04;19.60;82.00
39847;DHT22;25517;52.422;10.782;2023-03-23T13:05:38;19.70;82.20
39847;DHT22;25517;52.422;10.782;2023-03-23T13:08:18;19.50;81.80
39847;DHT22;25517;52.422;10.782;2023-03-23T13:10:54;19.00;82.00
39847;DHT22;25517;52.422;10.782;2023-03-23T13:19:06;18.00;85.80
39847;DHT22;25517;52.422;10.782;2023-03-23T13:21:46;17.50;87.60
39847;DHT22;25517;52.422;10.782;2023-03-23T13:24:18;17.30;89.50
39847;DHT22;25517;52.422;10.782;2023-03-23T13:26:45;16.80;94.40
39847;DHT22;25517;52.422;10.782;2023-03-23T13:29:15;16.00;99.90
39847;DHT22;25517;52.422;10.782;2023-03-23T13:31:45;15.40;99.90
39847;DHT22;25517;52.422;10.782;2023-03-23T13:34:30;14.90;99.90
39847;DHT22;25517;52.422;10.782;2023-03-23T13:37:10;14.70;99.90
39847;DHT22;25517;52.422;10.782;2023-03-23T13:39:47;14.70;99.90
39847;DHT22;25517;52.422;10.782;2023-03-23T13:52:23;14.90;99.90
39847;DHT22;25517;52.422;10.782;2023-03-23T13:54:51;14.70;99.90
39847;DHT22;25517;52.422;10.782;2023-03-23T13:57:37;14.60;99.90
39847;DHT22;25517;52.422;10.782;2023-03-23T14:00:25;14.50;99.90
39847;DHT22;25517;52.422;10.782;2023-03-23T14:05:45;14.40;99.90
39847;DHT22;25517;52.422;10.782;2023-03-23T14:10:43;14.40;99.90
39847;DHT22;25517;52.422;10.782;2023-03-23T14:13:20;14.50;99.90
39847;DHT22;25517;52.422;10.782;2023-03-23T14:16:22;14.60;99.90
39847;DHT22;25517;52.422;10.782;2023-03-23T14:18:59;14.70;99.90
39847;DHT22;25517;52.422;10.782;2023-03-23T14:21:37;14.80;99.90
39847;DHT22;25517;52.422;10.782;2023-03-23T14:24:10;15.00;99.90
39847;DHT22;25517;52.422;10.782;2023-03-23T14:26:36;14.90;99.90
39847;DHT22;25517;52.422;10.782;2023-03-23T14:29:04;14.90;99.90
39847;DHT22;25517;52.422;10.782;2023-03-23T14:31:31;14.60;99.90
39847;DHT22;25517;52.422;10.782;2023-03-23T14:34:02;14.60;99.90
39847;DHT22;25517;52.422;10.782;2023-03-23T14:36:30;14.50;99.90
39847;DHT22;25517;52.422;10.782;2023-03-23T14:41:29;14.40;99.90
39847;DHT22;25517;52.422;10.782;2023-03-23T14:43:56;14.40;99.90
39847;DHT22;25517;52.422;10.782;2023-03-23T14:46:22;14.30;99.90
39847;DHT22;25517;52.422;10.782;2023-03-23T14:48:49;14.20;99.90
39847;DHT22;25517;52.422;10.782;2023-03-23T14:51:20;14.10;99.90
39847;DHT22;25517;52.422;10.782;2023-03-23T14:53:46;14.10;99.90
39847;DHT22;25517;52.422;10.782;2023-03-23T14:56:15;14.10;99.90
39847;DHT22;25517;52.422;10.782;2023-03-23T14:58:48;14.10;99.90
39847;DHT22;25517;52.422;10.782;2023-03-23T15:01:27;14.00;99.90
39847;DHT22;25517;52.422;10.782;2023-03-23T15:04:08;13.90;99.90
39847;DHT22;25517;52.422;10.782;2023-03-23T15:06:35;13.80;99.90
39847;DHT22;25517;52.422;10.782;2023-03-23T15:09:05;13.70;99.90
39847;DHT22;25517;52.422;10.782;2023-03-23T15:11:33;13.60;99.90
39847;DHT22;25517;52.422;10.782;2023-03-23T15:14:08;13.40;99.90
39847;DHT22;25517;52.422;10.782;2023-03-23T15:16:35;13.30;99.90
39847;DHT22;25517;52.422;10.782;2023-03-23T15:19:11;13.10;99.90
39847;DHT22;25517;52.422;10.782;2023-03-23T15:24:31;12.90;99.90
39847;DHT22;25517;52.422;10.782;2023-03-23T15:29:31;12.80;99.90
39847;DHT22;25517;52.422;10.782;2023-03-23T15:31:57;12.70;99.90
39847;DHT22;25517;52.422;10.782;2023-03-23T15:34:31;12.60;99.90
39847;DHT22;25517;52.422;10.782;2023-03-23T15:37:03;12.50;99.90
39847;DHT22;25517;52.422;10.782;2023-03-23T15:39:30;12.50;99.90
39847;DHT22;25517;52.422;10.782;2023-03-23T15:41:57;12.50;99.90
39847;DHT22;25517;52.422;10.782;2023-03-23T15:44:29;12.50;99.90
39847;DHT22;25517;52.422;10.782;2023-03-23T15:47:14;12.50;99.90
39847;DHT22;25517;52.422;10.782;2023-03-23T15:49:41;12.70;99.90
39847;DHT22;25517;52.422;10.782;2023-03-23T15:52:11;12.70;99.90
39847;DHT22;25517;52.422;10.782;2023-03-23T15:54:38;12.80;99.90
39847;DHT22;25517;52.422;10.782;2023-03-23T15:57:03;12.80;99.90
39847;DHT22;25517;52.422;10.782;2023-03-23T15:59:29;12.80;99.90
39847;DHT22;25517;52.422;10.782;2023-03-23T16:01:55;12.70;99.90
39847;DHT22;25517;52.422;10.782;2023-03-23T16:04:21;12.80;99.90
39847;DHT22;25517;52.422;10.782;2023-03-23T16:06:54;12.80;99.90
39847;DHT22;25517;52.422;10.782;2023-03-23T16:09:20;12.80;99.90
39847;DHT22;25517;52.422;10.782;2023-03-23T16:11:46;12.80;99.90
39847;DHT22;25517;52.422;10.782;2023-03-23T16:14:12;12.80;99.90
39847;DHT22;25517;52.422;10.782;2023-03-23T16:16:41;12.70;99.90
39847;DHT22;25517;52.422;10.782;2023-03-23T16:19:08;12.60;99.90
39847;DHT22;25517;52.422;10.782;2023-03-23T16:21:35;12.70;99.90
39847;DHT22;25517;52.422;10.782;2023-03-23T16:24:01;12.70;99.90
39847;DHT22;25517;52.422;10.782;2023-03-23T16:26:26;12.70;99.90
39847;DHT22;25517;52.422;10.782;2023-03-23T16:28:52;12.80;99.90
39847;DHT22;25517;52.422;10.782;2023-03-23T16:31:17;12.80;99.90
39847;DHT22;25517;52.422;10.782;2023-03-23T16:33:43;12.90;99.90
39847;DHT22;25517;52.422;10.782;2023-03-23T16:36:11;12.80;99.90
39847;DHT22;25517;52.422;10.782;2023-03-23T16:38:36;12.90;99.90
39847;DHT22;25517;52.422;10.782;2023-03-23T16:41:02;12.80;99.90
39847;DHT22;25517;52.422;10.782;2023-03-23T16:43:28;12.80;99.90
39847;DHT22;25517;52.422;10.782;2023-03-23T16:45:55;12.80;99.90
39847;DHT22;25517;52.422;10.782;2023-03-23T16:48:21;12.80;99.90
39847;DHT22;25517;52.422;10.782;2023-03-23T16:50:47;12.70;99.90
39847;DHT22;25517;52.422;10.782;2023-03-23T16:53:12;12.80;99.90
39847;DHT22;25517;52.422;10.782;2023-03-23T16:55:38;12.80;99.90
39847;DHT22;25517;52.422;10.782;2023-03-23T16:58:04;12.80;99.90
39847;DHT22;25517;52.422;10.782;2023-03-23T17:00:30;12.80;99.90
39847;DHT22;25517;52.422;10.782;2023-03-23T17:02:56;12.80;99.90
39847;DHT22;25517;52.422;10.782;2023-03-23T17:05:27;12.80;99.90
39847;DHT22;25517;52.422;10.782;2023-03-23T17:07:53;12.70;99.90
39847;DHT22;25517;52.422;10.782;2023-03-23T17:10:25;12.70;99.90
39847;DHT22;25517;52.422;10.782;2023-03-23T17:12:52;12.60;99.90
39847;DHT22;25517;52.422;10.782;2023-03-23T17:15:18;12.50;99.90